sensor_id;sensor_type;location;lat;lon;timestamp;P1;durP1;ratioP1;P2;durP2;ratioP2
59468;SDS011;45277;52.768;18.262;2023-07-29T00:01:22;8.57;;;5.57;;
59468;SDS011;45277;52.768;18.262;2023-07-29T00:02:53;17.50;;;5.65;;
59468;SDS011;45277;52.768;18.262;2023-07-29T00:04:25;11.57;;;5.68;;
59468;SDS011;45277;52.768;18.262;2023-07-29T00:05:56;7.82;;;5.22;;
59468;SDS011;45277;52.768;18.262;2023-07-29T00:07:28;12.15;;;6.15;;
59468;SDS011;45277;52.768;18.262;2023-07-29T00:08:59;13.85;;;6.30;;
59468;SDS011;45277;52.768;18.262;2023-07-29T00:10:31;19.63;;;6.63;;
59468;SDS011;45277;52.768;18.262;2023-07-29T00:12:04;18.98;;;7.32;;
59468;SDS011;45277;52.768;18.262;2023-07-29T00:13:35;18.50;;;7.18;;
59468;SDS011;45277;52.768;18.262;2023-07-29T00:15:07;21.25;;;7.22;;
59468;SDS011;45277;52.768;18.262;2023-07-29T00:16:39;22.45;;;7.50;;
59468;SDS011;45277;52.768;18.262;2023-07-29T00:18:10;23.88;;;8.77;;
59468;SDS011;45277;52.768;18.262;2023-07-29T00:19:42;34.65;;;11.02;;
59468;SDS011;45277;52.768;18.262;2023-07-29T00:21:13;46.35;;;13.50;;
59468;SDS011;45277;52.768;18.262;2023-07-29T00:22:45;33.20;;;13.57;;
59468;SDS011;45277;52.768;18.262;2023-07-29T00:24:16;78.47;;;28.08;;
59468;SDS011;45277;52.768;18.262;2023-07-29T00:25:48;89.78;;;34.75;;
59468;SDS011;45277;52.768;18.262;2023-07-29T00:27:19;91.20;;;34.75;;
59468;SDS011;45277;52.768;18.262;2023-07-29T00:28:50;29.92;;;12.23;;
59468;SDS011;45277;52.768;18.262;2023-07-29T00:30:22;39.53;;;15.70;;
59468;SDS011;45277;52.768;18.262;2023-07-29T00:31:53;30.58;;;12.90;;
59468;SDS011;45277;52.768;18.262;2023-07-29T00:33:25;19.20;;;7.80;;
59468;SDS011;45277;52.768;18.262;2023-07-29T00:34:56;15.77;;;7.00;;
59468;SDS011;45277;52.768;18.262;2023-07-29T00:36:28;16.63;;;7.57;;
59468;SDS011;45277;52.768;18.262;2023-07-29T00:37:59;16.00;;;7.05;;
59468;SDS011;45277;52.768;18.262;2023-07-29T00:39:31;12.88;;;6.38;;
59468;SDS011;45277;52.768;18.262;2023-07-29T00:41:03;15.52;;;6.55;;
59468;SDS011;45277;52.768;18.262;2023-07-29T00:42:34;16.02;;;6.50;;
59468;SDS011;45277;52.768;18.262;2023-07-29T00:44:06;18.52;;;7.53;;
59468;SDS011;45277;52.768;18.262;2023-07-29T00:45:37;15.40;;;6.85;;
59468;SDS011;45277;52.768;18.262;2023-07-29T00:47:09;13.20;;;6.50;;
59468;SDS011;45277;52.768;18.262;2023-07-29T00:48:44;16.77;;;6.55;;
59468;SDS011;45277;52.768;18.262;2023-07-29T00:50:16;14.27;;;6.22;;
59468;SDS011;45277;52.768;18.262;2023-07-29T00:51:48;12.23;;;5.82;;
59468;SDS011;45277;52.768;18.262;2023-07-29T00:53:20;13.30;;;6.38;;
59468;SDS011;45277;52.768;18.262;2023-07-29T00:54:51;8.25;;;5.85;;
59468;SDS011;45277;52.768;18.262;2023-07-29T00:56:23;8.90;;;5.57;;
59468;SDS011;45277;52.768;18.262;2023-07-29T00:57:55;12.68;;;5.95;;
59468;SDS011;45277;52.768;18.262;2023-07-29T00:59:26;8.23;;;5.28;;
59468;SDS011;45277;52.768;18.262;2023-07-29T01:00:59;9.75;;;5.22;;
59468;SDS011;45277;52.768;18.262;2023-07-29T01:02:31;9.38;;;5.72;;
59468;SDS011;45277;52.768;18.262;2023-07-29T01:04:03;10.93;;;6.53;;
59468;SDS011;45277;52.768;18.262;2023-07-29T01:05:45;8.77;;;6.00;;
59468;SDS011;45277;52.768;18.262;2023-07-29T01:07:47;9.30;;;6.15;;
59468;SDS011;45277;52.768;18.262;2023-07-29T01:13:26;10.68;;;5.85;;
59468;SDS011;45277;52.768;18.262;2023-07-29T01:16:49;10.43;;;5.95;;
59468;SDS011;45277;52.768;18.262;2023-07-29T01:18:28;14.75;;;6.68;;
59468;SDS011;45277;52.768;18.262;2023-07-29T01:20:04;8.88;;;6.05;;
59468;SDS011;45277;52.768;18.262;2023-07-29T01:21:40;12.55;;;7.88;;
59468;SDS011;45277;52.768;18.262;2023-07-29T01:23:12;17.95;;;13.10;;
59468;SDS011;45277;52.768;18.262;2023-07-29T01:24:43;19.13;;;16.13;;
59468;SDS011;45277;52.768;18.262;2023-07-29T01:26:15;20.88;;;15.13;;
59468;SDS011;45277;52.768;18.262;2023-07-29T01:27:48;16.58;;;11.05;;
59468;SDS011;45277;52.768;18.262;2023-07-29T01:29:25;16.23;;;9.07;;
59468;SDS011;45277;52.768;18.262;2023-07-29T01:31:00;13.55;;;9.82;;
59468;SDS011;45277;52.768;18.262;2023-07-29T01:34:39;11.75;;;7.40;;
59468;SDS011;45277;52.768;18.262;2023-07-29T01:36:18;14.63;;;7.30;;
59468;SDS011;45277;52.768;18.262;2023-07-29T01:37:55;10.63;;;7.05;;
59468;SDS011;45277;52.768;18.262;2023-07-29T01:39:35;15.10;;;11.63;;
59468;SDS011;45277;52.768;18.262;2023-07-29T01:41:08;20.00;;;16.38;;
59468;SDS011;45277;52.768;18.262;2023-07-29T01:42:41;15.32;;;10.02;;
59468;SDS011;45277;52.768;18.262;2023-07-29T01:44:12;13.75;;;8.32;;
59468;SDS011;45277;52.768;18.262;2023-07-29T01:45:45;9.20;;;7.22;;
59468;SDS011;45277;52.768;18.262;2023-07-29T01:47:17;7.93;;;6.53;;
59468;SDS011;45277;52.768;18.262;2023-07-29T01:48:49;10.10;;;6.60;;
59468;SDS011;45277;52.768;18.262;2023-07-29T01:50:20;11.75;;;6.32;;
59468;SDS011;45277;52.768;18.262;2023-07-29T01:51:52;11.75;;;6.50;;
59468;SDS011;45277;52.768;18.262;2023-07-29T01:53:23;8.48;;;5.60;;
59468;SDS011;45277;52.768;18.262;2023-07-29T01:54:54;7.68;;;5.60;;
59468;SDS011;45277;52.768;18.262;2023-07-29T01:56:26;7.65;;;6.00;;
59468;SDS011;45277;52.768;18.262;2023-07-29T01:57:57;13.77;;;5.45;;
59468;SDS011;45277;52.768;18.262;2023-07-29T01:59:29;9.98;;;6.10;;
59468;SDS011;45277;52.768;18.262;2023-07-29T02:01:00;11.93;;;5.60;;
59468;SDS011;45277;52.768;18.262;2023-07-29T02:02:32;8.77;;;5.72;;
59468;SDS011;45277;52.768;18.262;2023-07-29T02:04:03;12.55;;;6.18;;
59468;SDS011;45277;52.768;18.262;2023-07-29T02:05:35;8.30;;;5.72;;
59468;SDS011;45277;52.768;18.262;2023-07-29T02:07:06;7.72;;;5.88;;
59468;SDS011;45277;52.768;18.262;2023-07-29T02:08:37;8.50;;;5.80;;
59468;SDS011;45277;52.768;18.262;2023-07-29T02:10:11;80.50;;;6.93;;
59468;SDS011;45277;52.768;18.262;2023-07-29T02:11:43;11.27;;;5.32;;
59468;SDS011;45277;52.768;18.262;2023-07-29T02:13:14;9.95;;;5.57;;
59468;SDS011;45277;52.768;18.262;2023-07-29T02:14:46;8.98;;;5.75;;
59468;SDS011;45277;52.768;18.262;2023-07-29T02:16:17;6.75;;;5.55;;
59468;SDS011;45277;52.768;18.262;2023-07-29T02:17:49;7.47;;;5.32;;
59468;SDS011;45277;52.768;18.262;2023-07-29T02:19:22;12.25;;;6.43;;
59468;SDS011;45277;52.768;18.262;2023-07-29T02:20:53;10.88;;;6.10;;
59468;SDS011;45277;52.768;18.262;2023-07-29T02:22:24;12.13;;;6.50;;
59468;SDS011;45277;52.768;18.262;2023-07-29T02:23:56;19.95;;;6.70;;
59468;SDS011;45277;52.768;18.262;2023-07-29T02:25:27;32.95;;;7.97;;
59468;SDS011;45277;52.768;18.262;2023-07-29T02:26:58;42.45;;;8.30;;
59468;SDS011;45277;52.768;18.262;2023-07-29T02:28:30;46.33;;;8.07;;
59468;SDS011;45277;52.768;18.262;2023-07-29T02:30:02;69.60;;;8.07;;
59468;SDS011;45277;52.768;18.262;2023-07-29T02:31:33;64.25;;;7.18;;
59468;SDS011;45277;52.768;18.262;2023-07-29T02:33:05;70.78;;;7.35;;
59468;SDS011;45277;52.768;18.262;2023-07-29T02:34:37;74.75;;;7.03;;
59468;SDS011;45277;52.768;18.262;2023-07-29T02:36:08;180.40;;;8.15;;
59468;SDS011;45277;52.768;18.262;2023-07-29T02:37:39;15.35;;;6.30;;
59468;SDS011;45277;52.768;18.262;2023-07-29T02:39:11;13.02;;;6.32;;
59468;SDS011;45277;52.768;18.262;2023-07-29T02:40:42;15.73;;;6.00;;
59468;SDS011;45277;52.768;18.262;2023-07-29T02:42:13;13.85;;;6.00;;
59468;SDS011;45277;52.768;18.262;2023-07-29T02:43:48;18.90;;;6.22;;
59468;SDS011;45277;52.768;18.262;2023-07-29T02:45:20;18.30;;;7.07;;
59468;SDS011;45277;52.768;18.262;2023-07-29T02:46:51;14.32;;;6.35;;
59468;SDS011;45277;52.768;18.262;2023-07-29T02:48:25;15.73;;;5.80;;
59468;SDS011;45277;52.768;18.262;2023-07-29T02:49:56;11.73;;;5.22;;
59468;SDS011;45277;52.768;18.262;2023-07-29T02:51:27;17.40;;;5.20;;
59468;SDS011;45277;52.768;18.262;2023-07-29T02:52:59;14.13;;;5.90;;
59468;SDS011;45277;52.768;18.262;2023-07-29T02:54:32;13.13;;;5.10;;
59468;SDS011;45277;52.768;18.262;2023-07-29T02:56:03;8.68;;;5.13;;
59468;SDS011;45277;52.768;18.262;2023-07-29T02:57:36;10.45;;;4.47;;
59468;SDS011;45277;52.768;18.262;2023-07-29T02:59:07;20.02;;;4.47;;
59468;SDS011;45277;52.768;18.262;2023-07-29T03:00:39;27.92;;;4.63;;
59468;SDS011;45277;52.768;18.262;2023-07-29T03:02:13;12.95;;;5.35;;
59468;SDS011;45277;52.768;18.262;2023-07-29T03:03:46;14.35;;;4.93;;
59468;SDS011;45277;52.768;18.262;2023-07-29T03:05:18;8.15;;;5.18;;
59468;SDS011;45277;52.768;18.262;2023-07-29T03:06:49;13.85;;;5.72;;
59468;SDS011;45277;52.768;18.262;2023-07-29T03:08:20;13.18;;;5.78;;
59468;SDS011;45277;52.768;18.262;2023-07-29T03:09:52;10.48;;;5.60;;
59468;SDS011;45277;52.768;18.262;2023-07-29T03:11:23;12.77;;;5.93;;
59468;SDS011;45277;52.768;18.262;2023-07-29T03:12:54;11.10;;;5.72;;
59468;SDS011;45277;52.768;18.262;2023-07-29T03:14:26;17.13;;;6.25;;
59468;SDS011;45277;52.768;18.262;2023-07-29T03:17:58;11.35;;;6.05;;
59468;SDS011;45277;52.768;18.262;2023-07-29T03:19:30;11.68;;;6.00;;
59468;SDS011;45277;52.768;18.262;2023-07-29T03:21:01;9.55;;;5.78;;
59468;SDS011;45277;52.768;18.262;2023-07-29T03:22:33;10.73;;;6.10;;
59468;SDS011;45277;52.768;18.262;2023-07-29T03:24:04;11.02;;;6.30;;
59468;SDS011;45277;52.768;18.262;2023-07-29T03:25:37;12.07;;;5.72;;
59468;SDS011;45277;52.768;18.262;2023-07-29T03:27:08;12.15;;;5.53;;
59468;SDS011;45277;52.768;18.262;2023-07-29T03:28:41;9.82;;;6.10;;
59468;SDS011;45277;52.768;18.262;2023-07-29T03:30:13;11.02;;;6.55;;
59468;SDS011;45277;52.768;18.262;2023-07-29T03:31:44;12.70;;;6.38;;
59468;SDS011;45277;52.768;18.262;2023-07-29T03:33:16;19.60;;;7.00;;
59468;SDS011;45277;52.768;18.262;2023-07-29T03:34:47;21.48;;;6.85;;
59468;SDS011;45277;52.768;18.262;2023-07-29T03:36:19;30.35;;;7.35;;
59468;SDS011;45277;52.768;18.262;2023-07-29T03:37:52;20.35;;;7.80;;
59468;SDS011;45277;52.768;18.262;2023-07-29T03:39:23;20.10;;;7.25;;
59468;SDS011;45277;52.768;18.262;2023-07-29T03:40:55;14.60;;;7.22;;
59468;SDS011;45277;52.768;18.262;2023-07-29T03:42:27;18.88;;;7.25;;
59468;SDS011;45277;52.768;18.262;2023-07-29T03:43:58;13.50;;;6.85;;
59468;SDS011;45277;52.768;18.262;2023-07-29T03:45:30;12.27;;;6.85;;
59468;SDS011;45277;52.768;18.262;2023-07-29T03:47:02;14.52;;;7.47;;
59468;SDS011;45277;52.768;18.262;2023-07-29T03:48:33;12.48;;;6.63;;
59468;SDS011;45277;52.768;18.262;2023-07-29T03:50:05;13.90;;;6.97;;
59468;SDS011;45277;52.768;18.262;2023-07-29T03:51:37;17.48;;;7.60;;
59468;SDS011;45277;52.768;18.262;2023-07-29T03:53:08;13.00;;;6.43;;
59468;SDS011;45277;52.768;18.262;2023-07-29T03:54:40;13.10;;;6.93;;
59468;SDS011;45277;52.768;18.262;2023-07-29T03:56:12;15.23;;;6.97;;
59468;SDS011;45277;52.768;18.262;2023-07-29T03:57:43;15.15;;;7.43;;
59468;SDS011;45277;52.768;18.262;2023-07-29T03:59:14;15.13;;;7.38;;
59468;SDS011;45277;52.768;18.262;2023-07-29T04:00:46;11.05;;;6.80;;
59468;SDS011;45277;52.768;18.262;2023-07-29T04:02:17;12.75;;;7.60;;
59468;SDS011;45277;52.768;18.262;2023-07-29T04:03:49;16.23;;;8.07;;
59468;SDS011;45277;52.768;18.262;2023-07-29T04:05:23;13.43;;;7.57;;
59468;SDS011;45277;52.768;18.262;2023-07-29T04:06:54;13.27;;;7.60;;
59468;SDS011;45277;52.768;18.262;2023-07-29T04:08:25;13.82;;;7.97;;
59468;SDS011;45277;52.768;18.262;2023-07-29T04:09:57;13.88;;;7.82;;
59468;SDS011;45277;52.768;18.262;2023-07-29T04:11:29;18.40;;;8.00;;
59468;SDS011;45277;52.768;18.262;2023-07-29T04:13:00;17.20;;;7.80;;
59468;SDS011;45277;52.768;18.262;2023-07-29T04:14:32;15.02;;;7.97;;
59468;SDS011;45277;52.768;18.262;2023-07-29T04:16:04;12.15;;;7.35;;
59468;SDS011;45277;52.768;18.262;2023-07-29T04:17:35;16.58;;;8.25;;
59468;SDS011;45277;52.768;18.262;2023-07-29T04:19:07;14.88;;;8.38;;
59468;SDS011;45277;52.768;18.262;2023-07-29T04:20:38;15.73;;;8.38;;
59468;SDS011;45277;52.768;18.262;2023-07-29T04:22:10;13.77;;;7.68;;
59468;SDS011;45277;52.768;18.262;2023-07-29T04:23:41;15.45;;;7.70;;
59468;SDS011;45277;52.768;18.262;2023-07-29T04:25:12;13.82;;;8.02;;
59468;SDS011;45277;52.768;18.262;2023-07-29T04:26:44;15.20;;;8.38;;
59468;SDS011;45277;52.768;18.262;2023-07-29T04:28:15;14.73;;;8.25;;
59468;SDS011;45277;52.768;18.262;2023-07-29T04:29:47;13.48;;;8.27;;
59468;SDS011;45277;52.768;18.262;2023-07-29T04:31:18;11.20;;;8.98;;
59468;SDS011;45277;52.768;18.262;2023-07-29T04:32:50;12.93;;;9.48;;
59468;SDS011;45277;52.768;18.262;2023-07-29T04:34:21;12.90;;;8.27;;
59468;SDS011;45277;52.768;18.262;2023-07-29T04:35:52;17.33;;;8.70;;
59468;SDS011;45277;52.768;18.262;2023-07-29T04:37:24;12.07;;;8.30;;
59468;SDS011;45277;52.768;18.262;2023-07-29T04:38:55;17.17;;;8.70;;
59468;SDS011;45277;52.768;18.262;2023-07-29T04:40:26;11.23;;;7.50;;
59468;SDS011;45277;52.768;18.262;2023-07-29T04:41:58;12.15;;;8.55;;
59468;SDS011;45277;52.768;18.262;2023-07-29T04:43:30;14.60;;;7.97;;
59468;SDS011;45277;52.768;18.262;2023-07-29T04:45:02;12.30;;;8.52;;
59468;SDS011;45277;52.768;18.262;2023-07-29T04:46:36;20.05;;;8.90;;
59468;SDS011;45277;52.768;18.262;2023-07-29T04:48:09;10.85;;;7.50;;
59468;SDS011;45277;52.768;18.262;2023-07-29T04:49:40;11.25;;;8.20;;
59468;SDS011;45277;52.768;18.262;2023-07-29T04:51:11;17.08;;;8.80;;
59468;SDS011;45277;52.768;18.262;2023-07-29T04:52:42;12.63;;;8.48;;
59468;SDS011;45277;52.768;18.262;2023-07-29T04:54:14;15.48;;;8.63;;
59468;SDS011;45277;52.768;18.262;2023-07-29T04:55:46;16.15;;;8.65;;
59468;SDS011;45277;52.768;18.262;2023-07-29T04:57:17;13.82;;;8.48;;
59468;SDS011;45277;52.768;18.262;2023-07-29T04:58:48;12.55;;;9.02;;
59468;SDS011;45277;52.768;18.262;2023-07-29T05:00:20;16.08;;;10.20;;
59468;SDS011;45277;52.768;18.262;2023-07-29T05:01:51;18.75;;;10.18;;
59468;SDS011;45277;52.768;18.262;2023-07-29T05:03:22;14.30;;;10.07;;
59468;SDS011;45277;52.768;18.262;2023-07-29T05:04:54;15.35;;;9.75;;
59468;SDS011;45277;52.768;18.262;2023-07-29T05:06:25;17.88;;;11.15;;
59468;SDS011;45277;52.768;18.262;2023-07-29T05:07:56;17.55;;;11.90;;
59468;SDS011;45277;52.768;18.262;2023-07-29T05:09:28;27.73;;;14.77;;
59468;SDS011;45277;52.768;18.262;2023-07-29T05:10:59;29.00;;;15.48;;
59468;SDS011;45277;52.768;18.262;2023-07-29T05:12:30;29.30;;;16.70;;
59468;SDS011;45277;52.768;18.262;2023-07-29T05:14:03;32.65;;;17.55;;
59468;SDS011;45277;52.768;18.262;2023-07-29T05:15:36;20.95;;;14.35;;
59468;SDS011;45277;52.768;18.262;2023-07-29T05:17:08;24.27;;;13.98;;
59468;SDS011;45277;52.768;18.262;2023-07-29T05:18:39;18.10;;;11.75;;
59468;SDS011;45277;52.768;18.262;2023-07-29T05:20:10;17.08;;;10.80;;
59468;SDS011;45277;52.768;18.262;2023-07-29T05:21:42;17.80;;;10.80;;
59468;SDS011;45277;52.768;18.262;2023-07-29T05:23:14;13.45;;;9.80;;
59468;SDS011;45277;52.768;18.262;2023-07-29T05:24:45;15.25;;;9.18;;
59468;SDS011;45277;52.768;18.262;2023-07-29T05:26:16;13.98;;;8.45;;
59468;SDS011;45277;52.768;18.262;2023-07-29T05:27:48;12.77;;;8.25;;
59468;SDS011;45277;52.768;18.262;2023-07-29T05:29:19;12.60;;;7.97;;
59468;SDS011;45277;52.768;18.262;2023-07-29T05:30:50;12.43;;;8.10;;
59468;SDS011;45277;52.768;18.262;2023-07-29T05:32:22;12.48;;;8.55;;
59468;SDS011;45277;52.768;18.262;2023-07-29T05:33:53;11.88;;;7.32;;
59468;SDS011;45277;52.768;18.262;2023-07-29T05:35:24;11.88;;;7.57;;
59468;SDS011;45277;52.768;18.262;2023-07-29T05:36:56;11.73;;;8.30;;
59468;SDS011;45277;52.768;18.262;2023-07-29T05:38:27;13.38;;;7.93;;
59468;SDS011;45277;52.768;18.262;2023-07-29T05:39:58;16.50;;;8.25;;
59468;SDS011;45277;52.768;18.262;2023-07-29T05:41:30;11.30;;;8.77;;
59468;SDS011;45277;52.768;18.262;2023-07-29T05:43:01;11.93;;;8.73;;
59468;SDS011;45277;52.768;18.262;2023-07-29T05:44:33;12.07;;;8.32;;
59468;SDS011;45277;52.768;18.262;2023-07-29T05:46:05;13.60;;;7.82;;
59468;SDS011;45277;52.768;18.262;2023-07-29T05:47:37;13.63;;;9.32;;
59468;SDS011;45277;52.768;18.262;2023-07-29T05:49:08;16.95;;;8.73;;
59468;SDS011;45277;52.768;18.262;2023-07-29T05:50:39;15.88;;;9.48;;
59468;SDS011;45277;52.768;18.262;2023-07-29T05:52:11;15.30;;;8.30;;
59468;SDS011;45277;52.768;18.262;2023-07-29T05:53:42;12.45;;;8.65;;
59468;SDS011;45277;52.768;18.262;2023-07-29T05:55:13;10.60;;;7.40;;
59468;SDS011;45277;52.768;18.262;2023-07-29T05:56:45;10.45;;;7.00;;
59468;SDS011;45277;52.768;18.262;2023-07-29T05:58:16;11.18;;;6.63;;
59468;SDS011;45277;52.768;18.262;2023-07-29T05:59:47;7.18;;;5.63;;
59468;SDS011;45277;52.768;18.262;2023-07-29T06:01:19;7.47;;;5.45;;
59468;SDS011;45277;52.768;18.262;2023-07-29T06:02:51;6.78;;;5.53;;
59468;SDS011;45277;52.768;18.262;2023-07-29T06:04:23;6.55;;;5.57;;
59468;SDS011;45277;52.768;18.262;2023-07-29T06:05:55;8.38;;;5.53;;
59468;SDS011;45277;52.768;18.262;2023-07-29T06:07:26;10.02;;;5.60;;
59468;SDS011;45277;52.768;18.262;2023-07-29T06:09:00;8.27;;;5.55;;
59468;SDS011;45277;52.768;18.262;2023-07-29T06:10:31;7.78;;;6.28;;
59468;SDS011;45277;52.768;18.262;2023-07-29T06:12:03;8.45;;;5.63;;
59468;SDS011;45277;52.768;18.262;2023-07-29T06:13:35;8.25;;;5.15;;
59468;SDS011;45277;52.768;18.262;2023-07-29T06:15:06;7.93;;;5.55;;
59468;SDS011;45277;52.768;18.262;2023-07-29T06:16:38;9.65;;;5.72;;
59468;SDS011;45277;52.768;18.262;2023-07-29T06:18:10;7.35;;;5.38;;
59468;SDS011;45277;52.768;18.262;2023-07-29T06:19:41;11.07;;;6.28;;
59468;SDS011;45277;52.768;18.262;2023-07-29T06:21:12;6.15;;;5.30;;
59468;SDS011;45277;52.768;18.262;2023-07-29T06:22:47;8.10;;;5.53;;
59468;SDS011;45277;52.768;18.262;2023-07-29T06:24:18;6.03;;;5.13;;
59468;SDS011;45277;52.768;18.262;2023-07-29T06:25:50;8.25;;;4.80;;
59468;SDS011;45277;52.768;18.262;2023-07-29T06:27:21;6.60;;;4.85;;
59468;SDS011;45277;52.768;18.262;2023-07-29T06:28:52;6.32;;;4.70;;
59468;SDS011;45277;52.768;18.262;2023-07-29T06:30:24;5.38;;;4.40;;
59468;SDS011;45277;52.768;18.262;2023-07-29T06:31:59;9.68;;;4.85;;
59468;SDS011;45277;52.768;18.262;2023-07-29T06:33:31;5.53;;;3.97;;
59468;SDS011;45277;52.768;18.262;2023-07-29T06:35:02;5.10;;;4.00;;
59468;SDS011;45277;52.768;18.262;2023-07-29T06:36:34;6.20;;;4.10;;
59468;SDS011;45277;52.768;18.262;2023-07-29T06:38:05;4.47;;;3.97;;
59468;SDS011;45277;52.768;18.262;2023-07-29T06:39:37;5.05;;;4.00;;
59468;SDS011;45277;52.768;18.262;2023-07-29T06:41:08;4.55;;;3.60;;
59468;SDS011;45277;52.768;18.262;2023-07-29T06:42:40;4.60;;;3.30;;
59468;SDS011;45277;52.768;18.262;2023-07-29T06:44:11;3.85;;;3.45;;
59468;SDS011;45277;52.768;18.262;2023-07-29T06:45:43;5.70;;;3.13;;
59468;SDS011;45277;52.768;18.262;2023-07-29T06:47:15;4.10;;;3.45;;
59468;SDS011;45277;52.768;18.262;2023-07-29T06:48:46;3.72;;;3.42;;
59468;SDS011;45277;52.768;18.262;2023-07-29T06:50:18;6.50;;;3.33;;
59468;SDS011;45277;52.768;18.262;2023-07-29T06:51:49;4.20;;;3.38;;
59468;SDS011;45277;52.768;18.262;2023-07-29T06:53:21;3.53;;;3.22;;
59468;SDS011;45277;52.768;18.262;2023-07-29T06:54:53;3.30;;;2.97;;
59468;SDS011;45277;52.768;18.262;2023-07-29T06:56:24;5.10;;;3.80;;
59468;SDS011;45277;52.768;18.262;2023-07-29T06:57:56;4.55;;;3.80;;
59468;SDS011;45277;52.768;18.262;2023-07-29T06:59:28;4.55;;;3.63;;
59468;SDS011;45277;52.768;18.262;2023-07-29T07:00:59;5.70;;;3.53;;
59468;SDS011;45277;52.768;18.262;2023-07-29T07:02:31;4.38;;;3.40;;
59468;SDS011;45277;52.768;18.262;2023-07-29T07:04:03;4.68;;;3.40;;
59468;SDS011;45277;52.768;18.262;2023-07-29T07:05:34;3.67;;;3.38;;
59468;SDS011;45277;52.768;18.262;2023-07-29T07:07:06;4.70;;;3.15;;
59468;SDS011;45277;52.768;18.262;2023-07-29T07:08:37;4.15;;;3.47;;
59468;SDS011;45277;52.768;18.262;2023-07-29T07:10:09;5.05;;;3.85;;
59468;SDS011;45277;52.768;18.262;2023-07-29T07:11:40;4.97;;;3.50;;
59468;SDS011;45277;52.768;18.262;2023-07-29T07:13:12;3.50;;;3.20;;
59468;SDS011;45277;52.768;18.262;2023-07-29T07:14:43;3.72;;;3.30;;
59468;SDS011;45277;52.768;18.262;2023-07-29T07:16:15;3.78;;;3.05;;
59468;SDS011;45277;52.768;18.262;2023-07-29T07:17:47;4.80;;;3.20;;
59468;SDS011;45277;52.768;18.262;2023-07-29T07:19:18;3.45;;;2.83;;
59468;SDS011;45277;52.768;18.262;2023-07-29T07:20:49;5.93;;;2.50;;
59468;SDS011;45277;52.768;18.262;2023-07-29T07:22:22;3.42;;;2.53;;
59468;SDS011;45277;52.768;18.262;2023-07-29T07:23:54;2.83;;;2.47;;
59468;SDS011;45277;52.768;18.262;2023-07-29T07:25:25;3.95;;;2.22;;
59468;SDS011;45277;52.768;18.262;2023-07-29T07:26:57;2.53;;;2.33;;
59468;SDS011;45277;52.768;18.262;2023-07-29T07:28:29;2.92;;;2.25;;
59468;SDS011;45277;52.768;18.262;2023-07-29T07:30:00;2.70;;;2.45;;
59468;SDS011;45277;52.768;18.262;2023-07-29T07:31:33;2.80;;;2.60;;
59468;SDS011;45277;52.768;18.262;2023-07-29T07:33:05;2.90;;;2.60;;
59468;SDS011;45277;52.768;18.262;2023-07-29T07:34:36;2.47;;;2.25;;
59468;SDS011;45277;52.768;18.262;2023-07-29T07:36:08;2.00;;;1.90;;
59468;SDS011;45277;52.768;18.262;2023-07-29T07:37:40;4.40;;;2.40;;
59468;SDS011;45277;52.768;18.262;2023-07-29T07:39:11;2.33;;;2.13;;
59468;SDS011;45277;52.768;18.262;2023-07-29T07:40:51;4.38;;;2.17;;
59468;SDS011;45277;52.768;18.262;2023-07-29T07:42:25;2.42;;;2.08;;
59468;SDS011;45277;52.768;18.262;2023-07-29T07:43:57;2.10;;;1.90;;
59468;SDS011;45277;52.768;18.262;2023-07-29T07:45:28;2.40;;;2.10;;
59468;SDS011;45277;52.768;18.262;2023-07-29T07:47:00;2.40;;;2.20;;
59468;SDS011;45277;52.768;18.262;2023-07-29T07:48:31;2.28;;;2.10;;
59468;SDS011;45277;52.768;18.262;2023-07-29T07:50:04;2.30;;;2.08;;
59468;SDS011;45277;52.768;18.262;2023-07-29T07:51:36;2.17;;;2.03;;
59468;SDS011;45277;52.768;18.262;2023-07-29T07:53:07;2.55;;;2.20;;
59468;SDS011;45277;52.768;18.262;2023-07-29T07:54:39;2.10;;;2.00;;
59468;SDS011;45277;52.768;18.262;2023-07-29T07:56:10;2.08;;;1.98;;
59468;SDS011;45277;52.768;18.262;2023-07-29T07:57:42;2.10;;;2.00;;
59468;SDS011;45277;52.768;18.262;2023-07-29T07:59:13;2.50;;;2.28;;
59468;SDS011;45277;52.768;18.262;2023-07-29T08:00:45;2.30;;;1.85;;
59468;SDS011;45277;52.768;18.262;2023-07-29T08:02:16;2.00;;;1.80;;
59468;SDS011;45277;52.768;18.262;2023-07-29T08:03:48;1.90;;;1.80;;
59468;SDS011;45277;52.768;18.262;2023-07-29T08:05:20;3.70;;;1.73;;
59468;SDS011;45277;52.768;18.262;2023-07-29T08:06:52;1.80;;;1.70;;
59468;SDS011;45277;52.768;18.262;2023-07-29T08:08:24;2.20;;;2.00;;
59468;SDS011;45277;52.768;18.262;2023-07-29T08:09:56;3.45;;;1.80;;
59468;SDS011;45277;52.768;18.262;2023-07-29T08:11:27;2.03;;;1.90;;
59468;SDS011;45277;52.768;18.262;2023-07-29T08:12:59;2.42;;;1.90;;
59468;SDS011;45277;52.768;18.262;2023-07-29T08:14:30;2.08;;;1.98;;
59468;SDS011;45277;52.768;18.262;2023-07-29T08:16:02;2.35;;;2.17;;
59468;SDS011;45277;52.768;18.262;2023-07-29T08:17:34;5.50;;;1.80;;
59468;SDS011;45277;52.768;18.262;2023-07-29T08:19:05;2.00;;;1.90;;
59468;SDS011;45277;52.768;18.262;2023-07-29T08:20:40;2.78;;;1.92;;
59468;SDS011;45277;52.768;18.262;2023-07-29T08:22:12;2.42;;;2.13;;
59468;SDS011;45277;52.768;18.262;2023-07-29T08:23:43;1.90;;;1.80;;
59468;SDS011;45277;52.768;18.262;2023-07-29T08:25:15;2.30;;;2.10;;
59468;SDS011;45277;52.768;18.262;2023-07-29T08:26:47;1.83;;;1.73;;
59468;SDS011;45277;52.768;18.262;2023-07-29T08:28:19;1.70;;;1.60;;
59468;SDS011;45277;52.768;18.262;2023-07-29T08:29:50;2.47;;;1.95;;
59468;SDS011;45277;52.768;18.262;2023-07-29T08:31:24;1.88;;;1.77;;
59468;SDS011;45277;52.768;18.262;2023-07-29T08:32:56;1.98;;;1.88;;
59468;SDS011;45277;52.768;18.262;2023-07-29T08:34:27;1.88;;;1.77;;
59468;SDS011;45277;52.768;18.262;2023-07-29T08:36:00;1.98;;;1.88;;
59468;SDS011;45277;52.768;18.262;2023-07-29T08:37:31;2.10;;;1.90;;
59468;SDS011;45277;52.768;18.262;2023-07-29T08:39:04;1.80;;;1.70;;
59468;SDS011;45277;52.768;18.262;2023-07-29T08:40:36;2.03;;;1.70;;
59468;SDS011;45277;52.768;18.262;2023-07-29T08:42:12;1.98;;;1.85;;
59468;SDS011;45277;52.768;18.262;2023-07-29T08:44:30;2.53;;;2.00;;
59468;SDS011;45277;52.768;18.262;2023-07-29T08:45:44;1.98;;;1.88;;
59468;SDS011;45277;52.768;18.262;2023-07-29T08:47:16;1.70;;;1.60;;
59468;SDS011;45277;52.768;18.262;2023-07-29T08:48:49;1.88;;;1.60;;
59468;SDS011;45277;52.768;18.262;2023-07-29T08:50:22;2.08;;;1.80;;
59468;SDS011;45277;52.768;18.262;2023-07-29T08:51:55;1.70;;;1.60;;
59468;SDS011;45277;52.768;18.262;2023-07-29T08:53:28;1.90;;;1.70;;
59468;SDS011;45277;52.768;18.262;2023-07-29T08:55:00;1.80;;;1.70;;
59468;SDS011;45277;52.768;18.262;2023-07-29T08:56:32;1.58;;;1.50;;
59468;SDS011;45277;52.768;18.262;2023-07-29T08:58:03;1.70;;;1.60;;
59468;SDS011;45277;52.768;18.262;2023-07-29T08:59:36;1.65;;;1.58;;
59468;SDS011;45277;52.768;18.262;2023-07-29T09:01:08;1.75;;;1.50;;
59468;SDS011;45277;52.768;18.262;2023-07-29T09:02:39;1.85;;;1.75;;
59468;SDS011;45277;52.768;18.262;2023-07-29T09:04:11;1.60;;;1.50;;
59468;SDS011;45277;52.768;18.262;2023-07-29T09:05:43;1.55;;;1.45;;
59468;SDS011;45277;52.768;18.262;2023-07-29T09:07:14;1.55;;;1.50;;
59468;SDS011;45277;52.768;18.262;2023-07-29T09:08:47;1.70;;;1.60;;
59468;SDS011;45277;52.768;18.262;2023-07-29T09:10:22;1.67;;;1.58;;
59468;SDS011;45277;52.768;18.262;2023-07-29T09:11:56;1.60;;;1.50;;